Time;durP1;ratioP1;P1;durP2;ratioP2;P2;SDS_P1;SDS_P2;PMS_P1;PMS_P2;Temp;Humidity;BMP_temperature;BMP_pressure;BME280_temperature;BME280_humidity;BME280_pressure;Samples;Min_cycle;Max_cycle;Signal;HPM_P1;HPM_P2
2021/10/25 00:02:27;;;;;;;0.98;0.90;;;;;;;5.06;100.00;101757.03;6248969;28;20076;-77
2021/10/25 00:05:29;;;;;;;1.10;0.85;;;;;;;5.04;100.00;101755.31;6248572;28;20053;-77
2021/10/25 00:08:30;;;;;;;1.30;0.82;;;;;;;5.06;100.00;101757.03;6248613;28;20056;-77
2021/10/25 00:11:32;;;;;;;1.85;0.85;;;;;;;5.02;100.00;101750.13;6248604;28;20049;-77
2021/10/25 00:14:35;;;;;;;1.00;0.80;;;;;;;4.96;100.00;101747.63;6248136;28;20049;-77
2021/10/25 00:17:36;;;;;;;1.73;0.93;;;;;;;4.92;100.00;101750.28;6271863;28;20056;-78
2021/10/25 00:20:38;;;;;;;1.50;0.90;;;;;;;4.89;100.00;101748.59;6272945;28;20057;-78
2021/10/25 00:23:39;;;;;;;2.13;1.10;;;;;;;4.80;100.00;101746.97;6272748;28;20053;-77
2021/10/25 00:26:41;;;;;;;1.23;0.85;;;;;;;4.75;100.00;101737.50;6272794;28;20053;-77
2021/10/25 00:29:43;;;;;;;1.40;0.70;;;;;;;4.70;100.00;101740.16;6272814;28;20507;-77
2021/10/25 00:32:45;;;;;;;1.90;1.00;;;;;;;4.63;100.00;101742.84;6272535;28;20053;-77
2021/10/25 00:35:46;;;;;;;1.50;0.77;;;;;;;4.54;100.00;101742.13;6272604;28;20424;-77
2021/10/25 00:38:48;;;;;;;2.47;0.95;;;;;;;4.44;100.00;101743.06;6272618;28;20538;-76
2021/10/25 00:41:49;;;;;;;0.75;0.73;;;;;;;4.32;100.00;101748.44;6272515;28;20523;-77
2021/10/25 00:44:52;;;;;;;1.27;0.95;;;;;;;4.24;100.00;101751.13;6272267;28;20057;-77
2021/10/25 00:47:53;;;;;;;1.75;0.90;;;;;;;4.15;100.00;101751.22;6271904;28;20423;-77
2021/10/25 00:50:55;;;;;;;1.00;0.70;;;;;;;4.07;100.00;101748.69;6272436;28;20048;-77
2021/10/25 00:53:56;;;;;;;1.95;1.10;;;;;;;4.01;100.00;101751.38;6271240;28;20048;-77
2021/10/25 00:56:59;;;;;;;3.63;1.60;;;;;;;3.92;100.00;101748.00;6272156;28;20436;-77
2021/10/25 01:00:03;;;;;;;1.80;1.00;;;;;;;3.86;100.00;101748.03;6272060;28;20138;-77
2021/10/25 01:03:04;;;;;;;1.05;0.80;;;;;;;3.81;100.00;101737.69;6272028;28;20048;-77
2021/10/25 01:06:07;;;;;;;1.67;0.93;;;;;;;3.73;100.00;101739.53;6271732;28;20068;-77
2021/10/25 01:09:10;;;;;;;2.90;0.98;;;;;;;3.68;100.00;101738.66;6272030;28;20057;-76
2021/10/25 01:12:12;;;;;;;3.72;1.13;;;;;;;3.63;100.00;101741.31;6271633;28;20068;-76
2021/10/25 01:15:14;;;;;;;0.90;0.85;;;;;;;3.61;100.00;101737.88;6271553;28;20045;-77
2021/10/25 01:18:16;;;;;;;0.57;0.57;;;;;;;3.59;100.00;101742.25;6271492;28;20056;-77
2021/10/25 01:21:18;;;;;;;6.63;0.90;;;;;;;3.55;100.00;101732.75;6271628;28;20045;-77
2021/10/25 01:24:20;;;;;;;4.43;1.60;;;;;;;3.49;100.00;101723.25;6271523;28;20049;-76
2021/10/25 01:27:21;;;;;;;1.35;0.80;;;;;;;3.47;100.00;101726.75;6271599;28;20044;-76
2021/10/25 01:30:23;;;;;;;2.78;1.60;;;;;;;3.40;100.00;101728.50;6271608;28;20045;-77
2021/10/25 01:33:27;;;;;;;1.08;0.88;;;;;;;3.40;100.00;101718.13;6271217;28;20059;-77
2021/10/25 01:36:30;;;;;;;2.35;0.88;;;;;;;3.38;100.00;101730.28;6271452;28;20072;-77
2021/10/25 01:39:32;;;;;;;2.38;1.00;;;;;;;3.37;100.00;101719.91;6271778;28;20049;-76
2021/10/25 01:42:34;;;;;;;1.30;0.90;;;;;;;3.34;100.00;101719.91;6271404;28;20459;-76
2021/10/25 01:45:35;;;;;;;1.85;1.00;;;;;;;3.30;100.00;101719.94;6271449;28;20049;-77
2021/10/25 01:48:36;;;;;;;1.20;0.70;;;;;;;3.28;100.00;101718.22;6271201;28;20056;-77
2021/10/25 01:51:39;;;;;;;2.10;1.30;;;;;;;3.25;100.00;101713.06;6271582;28;20488;-76
2021/10/25 01:54:41;;;;;;;6.68;1.33;;;;;;;3.23;100.00;101713.06;6270983;28;20056;-77
2021/10/25 01:57:42;;;;;;;1.90;1.30;;;;;;;3.20;100.00;101714.81;6271299;28;20056;-76
2021/10/25 02:00:43;;;;;;;1.85;1.42;;;;;;;3.16;100.00;101715.72;6271126;28;20044;-77
2021/10/25 02:03:45;;;;;;;1.60;0.75;;;;;;;3.13;100.00;101701.00;6272180;28;20053;-76
2021/10/25 02:06:47;;;;;;;0.75;0.65;;;;;;;3.11;100.00;101702.75;6276246;28;20090;-76
2021/10/25 02:09:49;;;;;;;2.10;1.00;;;;;;;3.10;100.00;101707.97;6276230;28;20053;-76
2021/10/25 02:12:50;;;;;;;4.05;0.82;;;;;;;3.07;100.00;101708.00;6275669;28;20518;-76
2021/10/25 02:15:53;;;;;;;1.88;0.70;;;;;;;3.04;100.00;101704.56;6275870;28;20045;-77
2021/10/25 02:18:54;;;;;;;4.07;1.42;;;;;;;3.02;100.00;101703.69;6275285;28;20424;-76
2021/10/25 02:21:57;;;;;;;0.77;0.60;;;;;;;3.00;100.00;101704.59;6275939;28;20049;-76
2021/10/25 02:24:58;;;;;;;1.48;1.33;;;;;;;2.94;100.00;101702.88;6275548;28;20049;-77
2021/10/25 02:28:00;;;;;;;1.60;1.05;;;;;;;2.93;100.00;101698.56;6275807;28;20052;-76
2021/10/25 02:31:01;;;;;;;1.27;0.98;;;;;;;2.91;100.00;101696.88;6275597;28;20048;-77
2021/10/25 02:34:03;;;;;;;1.90;1.10;;;;;;;2.89;100.00;101699.44;6275116;28;20049;-77
2021/10/25 02:37:05;;;;;;;1.88;0.75;;;;;;;2.90;100.00;101695.13;6275688;28;20131;-76
2021/10/25 02:40:08;;;;;;;3.28;1.40;;;;;;;2.89;100.00;101694.25;6275326;28;20503;-76
2021/10/25 02:43:09;;;;;;;2.92;1.20;;;;;;;2.85;100.00;101697.75;6275279;28;20063;-76
2021/10/25 02:46:11;;;;;;;1.42;0.90;;;;;;;2.83;100.00;101694.31;6317119;22;20048;-77
2021/10/25 02:49:12;;;;;;;0.85;0.82;;;;;;;2.80;100.00;101689.13;6299010;28;20431;-77
2021/10/25 02:52:15;;;;;;;1.92;1.27;;;;;;;2.82;100.00;101690.00;6276093;28;20052;-77
2021/10/25 02:55:17;;;;;;;2.72;1.10;;;;;;;2.78;100.00;101694.34;6277119;28;20056;-77
2021/10/25 02:58:18;;;;;;;4.30;1.00;;;;;;;2.75;100.00;101686.56;6277439;28;20049;-77
2021/10/25 03:01:20;;;;;;;2.42;1.40;;;;;;;2.77;100.00;101690.03;6275616;28;20059;-77
2021/10/25 03:04:21;;;;;;;2.35;1.00;;;;;;;2.77;100.00;101683.94;6274772;28;20076;-77
2021/10/25 03:07:24;;;;;;;2.67;1.02;;;;;;;2.75;100.00;101683.09;6277913;28;20122;-77
2021/10/25 03:10:25;;;;;;;3.28;1.15;;;;;;;2.73;100.00;101679.66;6294065;28;20096;-77
2021/10/25 03:13:27;;;;;;;2.00;1.10;;;;;;;2.73;100.00;101683.13;6288989;28;20060;-77
2021/10/25 03:16:28;;;;;;;1.45;1.25;;;;;;;2.67;100.00;101677.94;6277479;28;20053;-77
2021/10/25 03:19:30;;;;;;;4.32;1.42;;;;;;;2.65;100.00;101671.91;6290245;28;20067;-77
2021/10/25 03:22:33;;;;;;;1.35;0.98;;;;;;;2.64;100.00;101679.72;6300356;28;20048;-77
2021/10/25 03:25:35;;;;;;;2.08;1.10;;;;;;;2.61;100.00;101669.34;6296370;28;20053;-77
2021/10/25 03:28:37;;;;;;;2.75;1.50;;;;;;;2.61;100.00;101667.63;6284697;28;20527;-77
2021/10/25 03:31:39;;;;;;;3.75;1.30;;;;;;;2.62;100.00;101665.88;6284689;28;20519;-77
2021/10/25 03:34:41;;;;;;;1.75;1.35;;;;;;;2.60;100.00;101665.03;6277631;28;20053;-77
2021/10/25 03:37:44;;;;;;;1.58;1.35;;;;;;;2.58;100.00;101664.16;6275292;28;20068;-77
2021/10/25 03:40:49;;;;;;;1.13;0.75;;;;;;;2.60;100.00;101663.31;6276676;28;20045;-77
2021/10/25 03:43:54;;;;;;;1.90;1.42;;;;;;;2.60;100.00;101667.63;6283362;28;20045;-77
2021/10/25 03:46:59;;;;;;;7.20;1.38;;;;;;;2.59;100.00;101674.56;6286830;28;20048;-77
2021/10/25 03:50:07;;;;;;;1.40;0.85;;;;;;;2.61;100.00;101666.75;6299565;28;20098;-77
2021/10/25 03:53:14;;;;;;;2.08;1.10;;;;;;;2.62;100.00;101677.13;6299584;28;20102;-77
2021/10/25 03:56:17;;;;;;;1.92;1.33;;;;;;;2.58;100.00;101667.63;6299431;28;20106;-77
2021/10/25 03:59:39;;;;;;;2.50;1.25;;;;;;;2.60;100.00;101665.91;6295508;28;20123;-78
2021/10/25 04:13:10;;;;;;;1.83;1.38;;;;;;;2.60;100.00;101665.91;6274445;28;20041;-77
2021/10/25 04:26:21;;;;;;;1.00;0.82;;;;;;;2.55;100.00;101662.47;6297400;28;20048;-77
2021/10/25 04:29:24;;;;;;;1.35;1.13;;;;;;;2.53;100.00;101656.41;6298517;28;20139;-76
2021/10/25 04:32:25;;;;;;;2.60;1.52;;;;;;;2.51;100.00;101652.97;6297900;28;20052;-76
2021/10/25 04:35:27;;;;;;;3.22;1.50;;;;;;;2.52;100.00;101650.38;6298308;28;20083;-76
2021/10/25 04:38:28;;;;;;;2.45;1.60;;;;;;;2.51;100.00;101652.97;6298430;28;20070;-76
2021/10/25 04:41:31;;;;;;;2.20;1.23;;;;;;;2.47;100.00;101644.34;6298469;28;20055;-77
2021/10/25 04:44:33;;;;;;;1.92;1.15;;;;;;;2.47;100.00;101646.06;6297511;28;20059;-76
2021/10/25 04:47:34;;;;;;;2.38;1.67;;;;;;;2.47;100.00;101648.66;6297450;28;20056;-76
2021/10/25 04:50:36;;;;;;;2.10;1.52;;;;;;;2.45;100.00;101643.50;6297889;28;20047;-76
2021/10/25 04:53:37;;;;;;;4.57;1.02;;;;;;;2.44;100.00;101648.69;6297269;28;20059;-76
2021/10/25 04:56:40;;;;;;;2.88;1.60;;;;;;;2.41;100.00;101641.78;6297703;28;20052;-77
2021/10/25 04:59:42;;;;;;;1.60;1.00;;;;;;;2.38;100.00;101633.16;6297133;28;20053;-76
2021/10/25 05:02:43;;;;;;;2.83;1.50;;;;;;;2.40;100.00;101634.84;6296768;28;20052;-76
2021/10/25 05:05:45;;;;;;;3.88;1.50;;;;;;;2.36;100.00;101640.91;6297312;28;20048;-76
2021/10/25 05:08:46;;;;;;;2.72;1.63;;;;;;;2.37;100.00;101640.09;6297514;28;20049;-76
2021/10/25 05:11:49;;;;;;;1.90;1.50;;;;;;;2.39;100.00;101635.72;6296972;28;20407;-75
2021/10/25 05:14:50;;;;;;;2.33;1.20;;;;;;;2.40;100.00;101636.59;6296527;28;20044;-77
2021/10/25 05:17:52;;;;;;;2.45;1.30;;;;;;;2.39;100.00;101635.72;6297154;28;20048;-76
2021/10/25 05:20:53;;;;;;;1.77;1.40;;;;;;;2.38;100.00;101627.97;6297105;28;20055;-76
2021/10/25 05:23:54;;;;;;;8.02;1.52;;;;;;;2.39;100.00;101629.69;6297143;28;20055;-76
2021/10/25 05:26:57;;;;;;;4.10;1.10;;;;;;;2.39;100.00;101629.69;6297829;28;20055;-76
2021/10/25 05:29:58;;;;;;;1.33;1.23;;;;;;;2.36;100.00;101638.34;6297287;28;20419;-76
2021/10/25 05:33:00;;;;;;;2.88;1.50;;;;;;;2.37;100.00;101618.47;6297293;28;20049;-76
2021/10/25 05:36:02;;;;;;;8.18;1.38;;;;;;;2.39;100.00;101624.50;6296340;28;20044;-76
2021/10/25 05:39:08;;;;;;;1.73;1.23;;;;;;;2.40;100.00;101621.03;6296042;28;20158;-76
2021/10/25 05:42:10;;;;;;;1.48;1.35;;;;;;;2.37;100.00;101624.53;6296688;28;20567;-76
2021/10/25 05:45:12;;;;;;;4.35;1.23;;;;;;;2.36;100.00;101627.97;6294597;28;20051;-76
2021/10/25 05:48:14;;;;;;;2.60;1.45;;;;;;;2.35;100.00;101615.88;6296973;28;20079;-76
2021/10/25 05:51:15;;;;;;;3.60;1.35;;;;;;;2.32;100.00;101618.50;6296983;28;20048;-76
2021/10/25 05:54:16;;;;;;;4.45;1.45;;;;;;;2.32;100.00;101615.00;6296347;28;20049;-76
2021/10/25 05:57:21;;;;;;;1.70;0.85;;;;;;;2.29;100.00;101611.59;6296302;28;20510;-76
2021/10/25 06:00:26;;;;;;;1.20;1.10;;;;;;;2.30;100.00;101612.44;6296252;28;20488;-76
2021/10/25 06:03:30;;;;;;;3.83;2.10;;;;;;;2.32;100.00;101604.63;6296302;28;20059;-76
2021/10/25 06:06:32;;;;;;;2.38;1.23;;;;;;;2.31;100.00;101614.16;6296442;28;20052;-76
2021/10/25 06:09:35;;;;;;;2.03;1.33;;;;;;;2.31;100.00;101606.38;6296434;28;20052;-76
2021/10/25 06:12:41;;;;;;;1.35;1.25;;;;;;;2.33;100.00;101606.38;6295917;28;20052;-76
2021/10/25 06:15:42;;;;;;;3.75;1.67;;;;;;;2.37;100.00;101610.69;6295088;28;20049;-76
2021/10/25 06:18:44;;;;;;;2.30;1.58;;;;;;;2.37;100.00;101608.09;6296134;28;20416;-76
2021/10/25 06:21:46;;;;;;;2.47;1.45;;;;;;;2.40;100.00;101611.50;6296082;28;20044;-76
2021/10/25 06:24:48;;;;;;;2.17;0.90;;;;;;;2.41;100.00;101615.00;6295529;28;20045;-76
2021/10/25 06:27:51;;;;;;;1.63;1.00;;;;;;;2.46;100.00;101605.44;6296009;28;20049;-76
2021/10/25 06:30:59;;;;;;;1.73;1.20;;;;;;;2.51;100.00;101607.13;6295493;28;20411;-76
2021/10/25 06:34:07;;;;;;;1.48;1.10;;;;;;;2.59;100.00;101608.81;6295593;28;20045;-76
2021/10/25 06:37:09;;;;;;;3.40;1.33;;;;;;;2.69;100.00;101611.34;6295632;28;20507;-76
2021/10/25 06:40:11;;;;;;;2.75;1.65;;;;;;;2.83;100.00;101606.06;6295737;28;20044;-76
2021/10/25 06:43:14;;;;;;;1.85;1.20;;;;;;;2.99;100.00;101611.97;6293918;28;20045;-75
2021/10/25 06:46:17;;;;;;;1.83;1.10;;;;;;;3.14;100.00;101614.47;6295038;28;20052;-76
2021/10/25 06:49:18;;;;;;;2.13;1.15;;;;;;;3.24;100.00;101623.03;6295802;28;20385;-76
2021/10/25 06:52:20;;;;;;;3.25;1.25;;;;;;;3.35;100.00;101628.13;6297826;28;20044;-76
2021/10/25 06:55:21;;;;;;;10.63;1.80;;;;;;;3.39;100.00;101622.00;6299667;28;20613;-76
2021/10/25 06:58:24;;;;;;;2.13;1.20;;;;;;;3.50;100.00;101627.97;6291420;28;20043;-76
2021/10/25 07:01:25;;;;;;;2.33;1.33;;;;;;;3.54;100.00;101624.44;6275356;28;20045;-76
2021/10/25 07:04:26;;;;;;;3.95;1.45;;;;;;;3.57;100.00;101627.03;6274683;28;20080;-76
2021/10/25 07:07:29;;;;;;;3.63;0.95;;;;;;;3.59;100.00;101635.69;6275079;28;20443;-76
2021/10/25 07:10:31;;;;;;;2.97;1.67;;;;;;;3.60;100.00;101633.94;6275149;28;20171;-76
2021/10/25 07:13:33;;;;;;;4.43;1.70;;;;;;;3.62;100.00;101633.03;6291693;28;20101;-76
2021/10/25 07:16:38;;;;;;;1.55;1.20;;;;;;;3.64;100.00;101636.50;6299484;28;20055;-76
2021/10/25 07:19:52;;;;;;;3.67;1.55;;;;;;;3.66;100.00;101645.13;6299540;28;20051;-76
2021/10/25 07:26:42;;;;;;;2.22;1.30;;;;;;;3.74;100.00;101653.72;6299107;28;20061;-76
2021/10/25 08:00:11;;;;;;;5.28;2.13;;;;;;;4.36;100.00;101655.56;6298459;28;20056;-76
2021/10/25 08:03:40;;;;;;;1.75;1.00;;;;;;;4.46;100.00;101652.84;6295151;28;20491;-77
2021/10/25 08:06:49;;;;;;;5.95;1.70;;;;;;;4.56;100.00;101638.81;6297156;28;20101;-76
2021/10/25 08:09:53;;;;;;;6.03;1.63;;;;;;;4.62;100.00;101624.00;6298233;28;20492;-76
2021/10/25 08:12:56;;;;;;;3.40;1.73;;;;;;;4.69;100.00;101623.03;6297585;28;20135;-77
2021/10/25 08:15:58;;;;;;;3.78;1.55;;;;;;;4.78;100.00;101620.28;6297485;28;20419;-79
2021/10/25 08:19:12;;;;;;;4.00;1.20;;;;;;;4.86;100.00;101615.81;6298732;28;20049;-75
2021/10/25 08:22:15;;;;;;;2.80;1.42;;;;;;;4.92;100.00;101607.06;6288193;28;20044;-77
2021/10/25 08:25:17;;;;;;;3.30;1.67;;;;;;;5.06;100.00;101611.13;6298283;28;20080;-79
2021/10/25 08:28:18;;;;;;;2.72;1.52;;;;;;;5.23;100.00;101616.06;6299066;28;20063;-79
2021/10/25 08:31:22;;;;;;;3.72;1.52;;;;;;;5.43;100.00;101633.09;6298633;28;20044;-79
2021/10/25 08:34:35;;;;;;;3.08;1.60;;;;;;;5.64;100.00;101627.50;6297995;28;20056;-80
2021/10/25 08:40:55;;;;;;;4.20;2.00;;;;;;;6.03;100.00;101631.09;6296494;28;20084;-78
2021/10/25 08:43:58;;;;;;;3.95;1.65;;;;;;;6.18;100.00;101618.66;6296742;28;20055;-78
2021/10/25 08:46:59;;;;;;;2.95;1.50;;;;;;;6.27;100.00;101621.06;6296551;28;20052;-77
2021/10/25 08:50:05;;;;;;;4.53;1.50;;;;;;;6.38;100.00;101621.69;6296095;28;20048;-77
2021/10/25 08:53:09;;;;;;;3.53;1.80;;;;;;;6.50;100.00;101613.59;6297120;28;20044;-77
2021/10/25 08:56:16;;;;;;;5.30;1.30;;;;;;;6.68;100.00;101620.13;6296896;28;20040;-76
2021/10/25 08:59:20;;;;;;;3.17;1.67;;;;;;;6.79;100.00;101617.25;6295896;28;20480;-77
2021/10/25 09:02:23;;;;;;;2.53;1.52;;;;;;;6.92;100.00;101621.31;6297016;28;20464;-77
2021/10/25 09:05:26;;;;;;;4.65;1.67;;;;;;;7.03;100.00;101627.13;6296520;28;20411;-76
2021/10/25 09:08:28;;;;;;;1.73;1.30;;;;;;;7.21;100.00;101622.34;6296614;28;20049;-77
2021/10/25 09:11:30;;;;;;;2.35;1.65;;;;;;;7.36;100.00;101625.44;6295437;28;20044;-77
2021/10/25 09:14:32;;;;;;;2.30;1.50;;;;;;;7.34;100.00;101627.22;6295328;28;20055;-77
2021/10/25 09:17:41;;;;;;;2.45;1.13;;;;;;;7.43;100.00;101628.72;6294384;28;20049;-77
2021/10/25 09:20:46;;;;;;;3.05;1.88;;;;;;;7.50;100.00;101632.06;6295507;28;20049;-78
2021/10/25 09:23:49;;;;;;;4.35;1.42;;;;;;;7.56;100.00;101630.13;6294969;28;20041;-77
2021/10/25 09:26:55;;;;;;;4.05;1.50;;;;;;;7.65;100.00;101622.94;6296503;28;20049;-77
2021/10/25 09:30:05;;;;;;;1.88;1.45;;;;;;;7.65;100.00;101622.94;6296630;28;20494;-77
2021/10/25 09:33:07;;;;;;;4.00;1.63;;;;;;;7.75;100.00;101620.00;6289369;28;20044;-78
2021/10/25 09:36:14;;;;;;;3.25;1.45;;;;;;;7.80;100.00;101617.28;6296385;28;20098;-78
2021/10/25 09:39:19;;;;;;;2.45;1.75;;;;;;;7.83;100.00;101607.59;6296731;28;20634;-77
2021/10/25 09:42:49;;;;;;;1.95;1.17;;;;;;;7.85;100.00;101603.16;6296976;28;20074;-78
2021/10/25 09:46:03;;;;;;;3.75;1.58;;;;;;;7.97;100.00;101608.94;6297378;28;20064;-78
2021/10/25 09:49:08;;;;;;;1.77;1.50;;;;;;;8.04;100.00;101613.09;6298054;28;20048;-79
2021/10/25 09:52:11;;;;;;;4.10;1.42;;;;;;;8.17;100.00;101613.59;6298076;28;20045;-79
2021/10/25 09:55:16;;;;;;;3.28;1.52;;;;;;;8.41;100.00;101604.22;6288763;28;20493;-79
2021/10/25 09:58:19;;;;;;;2.30;1.40;;;;;;;8.54;100.00;101611.66;6296859;28;20048;-77
2021/10/25 10:01:26;;;;;;;2.95;1.90;;;;;;;8.60;100.00;101607.97;6297642;28;20529;-82
2021/10/25 10:04:28;;;;;;;2.58;1.50;;;;;;;8.60;100.00;101611.44;6298629;28;20057;-81
2021/10/25 10:07:31;;;;;;;2.90;1.77;;;;;;;8.70;100.00;101608.53;6294866;28;20514;-81
2021/10/25 10:10:33;;;;;;;1.60;1.30;;;;;;;8.70;100.00;101600.66;6297081;28;20056;-82
2021/10/25 10:13:35;;;;;;;3.92;1.33;;;;;;;8.77;100.00;101604.81;6297373;28;20052;-83
2021/10/25 10:16:37;;;;;;;2.80;1.67;;;;;;;8.87;100.00;101601.00;6297689;28;20045;-83
2021/10/25 10:19:39;;;;;;;1.90;1.23;;;;;;;9.02;100.00;101597.84;6292342;28;20049;-82
2021/10/25 10:22:46;;;;;;;7.40;1.65;;;;;;;9.30;100.00;101597.78;6297531;28;20123;-82
2021/10/25 10:25:51;;;;;;;2.22;1.40;;;;;;;9.30;100.00;101589.91;6300560;28;20443;-82
2021/10/25 10:28:53;;;;;;;3.58;1.80;;;;;;;9.37;100.00;101591.41;6296160;28;20049;-83
2021/10/25 10:31:59;;;;;;;2.55;1.58;;;;;;;9.53;100.00;101590.88;6301321;28;20450;-82
2021/10/25 10:35:04;;;;;;;6.80;1.88;;;;;;;9.71;100.00;101595.47;6294048;28;20419;-81
2021/10/25 10:38:07;;;;;;;2.75;1.50;;;;;;;9.83;100.00;101591.53;6302603;28;20137;-84
2021/10/25 10:41:08;;;;;;;3.00;1.42;;;;;;;9.89;100.00;101584.28;6298543;28;20060;-85
2021/10/25 10:44:11;;;;;;;1.80;1.30;;;;;;;9.98;100.00;101582.25;6297734;28;20056;-87
2021/10/25 10:47:19;;;;;;;2.85;1.33;;;;;;;10.10;99.81;101585.25;6302225;28;20059;-87
2021/10/25 10:50:26;;;;;;;6.30;1.55;;;;;;;10.02;100.00;101589.94;6302887;28;20410;-88
2021/10/25 10:53:32;;;;;;;2.13;1.27;;;;;;;10.18;100.00;101586.75;6268855;28;87345;-88
2021/10/25 10:56:39;;;;;;;2.05;1.25;;;;;;;10.41;99.13;101584.13;6275000;28;20049;-87
2021/10/25 10:59:50;;;;;;;8.13;2.13;;;;;;;10.75;98.35;101581.00;6270047;28;20052;-88
2021/10/25 11:02:53;;;;;;;3.13;1.65;;;;;;;10.99;95.71;101581.78;6254022;28;20136;-86
2021/10/25 11:06:00;;;;;;;2.40;1.60;;;;;;;11.21;94.43;101586.97;6253189;28;20042;-83
2021/10/25 11:09:10;;;;;;;4.38;1.10;;;;;;;11.43;91.55;101582.50;6254909;28;20515;-85
2021/10/25 11:12:12;;;;;;;1.33;1.15;;;;;;;11.42;92.34;101577.31;6254678;28;20417;-85
2021/10/25 11:15:15;;;;;;;3.10;1.60;;;;;;;11.72;91.56;101577.75;6265717;28;20053;-85
2021/10/25 11:18:17;;;;;;;2.08;1.48;;;;;;;12.09;88.89;101573.47;6279962;28;20049;-85
2021/10/25 11:21:22;;;;;;;3.28;1.60;;;;;;;12.18;88.57;101568.63;6280502;28;20044;-85
2021/10/25 11:24:25;;;;;;;3.97;1.00;;;;;;;12.11;88.26;101571.59;6280079;28;20051;-85
2021/10/25 11:27:32;;;;;;;2.00;1.17;;;;;;;11.91;91.26;101591.81;6280742;28;20056;-85
2021/10/25 11:30:33;;;;;;;1.65;1.20;;;;;;;11.82;91.46;101580.81;6281221;28;20049;-85
2021/10/25 11:33:36;;;;;;;3.38;1.27;;;;;;;11.84;90.62;101579.84;6280594;28;20052;-85
2021/10/25 11:36:48;;;;;;;2.40;1.70;;;;;;;11.85;91.84;101578.06;6262074;28;20050;-85
2021/10/25 11:39:56;;;;;;;3.38;1.23;;;;;;;11.87;93.41;101568.31;6259757;28;20127;-85
2021/10/25 11:43:01;;;;;;;1.80;1.05;;;;;;;11.97;90.53;101568.75;6260629;28;20558;-85
2021/10/25 11:46:14;;;;;;;3.38;1.60;;;;;;;11.92;89.69;101571.59;6258964;28;20046;-85
2021/10/25 11:49:22;;;;;;;1.55;1.13;;;;;;;11.97;90.80;101572.22;6253071;28;20068;-85
2021/10/25 11:52:24;;;;;;;1.20;1.10;;;;;;;11.98;90.03;101573.09;6251305;28;20485;-85
2021/10/25 11:55:29;;;;;;;2.38;1.25;;;;;;;11.91;91.05;101562.00;6252209;28;20484;-82
2021/10/25 11:58:30;;;;;;;6.32;1.77;;;;;;;11.87;89.75;101569.16;6251527;28;20099;-82
2021/10/25 12:01:32;;;;;;;2.35;1.40;;;;;;;11.76;89.64;101560.84;6251678;28;20053;-85
2021/10/25 12:04:41;;;;;;;1.65;1.08;;;;;;;11.72;90.26;101561.06;6249681;28;20042;-86
2021/10/25 12:07:50;;;;;;;3.58;1.25;;;;;;;11.80;89.74;101548.41;6250106;28;20045;-86
2021/10/25 12:10:53;;;;;;;2.35;1.23;;;;;;;11.74;89.35;101541.66;6252186;28;20049;-85
2021/10/25 12:14:00;;;;;;;1.70;1.10;;;;;;;11.67;88.53;101548.09;6252286;28;20041;-84
2021/10/25 12:17:01;;;;;;;2.75;1.20;;;;;;;11.62;89.96;101548.31;6252846;28;20053;-85
2021/10/25 12:20:06;;;;;;;2.60;1.52;;;;;;;11.54;92.01;101544.34;6253083;28;20049;-87
2021/10/25 12:23:10;;;;;;;3.45;1.60;;;;;;;11.54;92.12;101550.44;6252862;28;20053;-84
2021/10/25 12:26:15;;;;;;;5.43;1.15;;;;;;;11.49;92.88;101548.94;6252509;28;20049;-85
2021/10/25 12:29:18;;;;;;;1.77;1.20;;;;;;;11.45;93.46;101545.59;6252673;28;20064;-86
2021/10/25 12:32:19;;;;;;;2.25;1.50;;;;;;;11.43;92.00;101535.13;6253742;28;20053;-86
2021/10/25 12:35:30;;;;;;;4.70;1.38;;;;;;;11.43;92.26;101531.63;6254310;28;20041;-87
2021/10/25 12:38:40;;;;;;;1.42;1.30;;;;;;;11.40;93.17;101522.13;6265826;28;20052;-87
2021/10/25 12:41:51;;;;;;;1.60;1.15;;;;;;;11.47;90.40;101519.19;6268477;28;20496;-87
2021/10/25 12:44:55;;;;;;;1.85;1.30;;;;;;;11.54;91.11;101521.50;6279040;28;20492;-87
2021/10/25 12:48:00;;;;;;;1.52;1.05;;;;;;;11.53;93.82;101525.03;6281334;28;20528;-85
2021/10/25 12:51:03;;;;;;;2.00;0.88;;;;;;;11.59;91.96;101524.78;6269447;28;20057;-86
2021/10/25 12:54:08;;;;;;;2.22;1.42;;;;;;;11.57;93.03;101512.59;6281116;28;20102;-85
2021/10/25 12:57:19;;;;;;;1.35;1.10;;;;;;;11.56;95.05;101516.16;6276305;28;20084;-86
2021/10/25 13:00:20;;;;;;;4.45;1.60;;;;;;;11.54;93.23;101508.34;6273732;28;20048;-87
2021/10/25 13:03:28;;;;;;;3.00;1.30;;;;;;;11.59;93.71;101508.97;6261995;28;20049;-86
2021/10/25 13:06:31;;;;;;;1.70;1.25;;;;;;;11.61;92.15;101515.00;6261598;28;20072;-86
2021/10/25 13:09:32;;;;;;;1.38;1.10;;;;;;;11.65;92.13;101499.94;6274343;28;20049;-86
2021/10/25 13:12:35;;;;;;;3.17;1.40;;;;;;;11.68;91.47;101492.75;6274198;28;20048;-86
2021/10/25 13:15:38;;;;;;;2.75;1.73;;;;;;;11.73;91.81;101491.69;6273103;28;20041;-86
2021/10/25 13:18:39;;;;;;;2.20;1.08;;;;;;;11.68;91.93;101481.38;6273384;28;20067;-85
2021/10/25 13:21:42;;;;;;;3.55;1.33;;;;;;;11.70;93.61;101484.78;6267286;28;20053;-86
2021/10/25 13:24:44;;;;;;;1.60;1.13;;;;;;;11.65;92.24;101482.34;6232350;28;20045;-86
2021/10/25 13:27:49;;;;;;;2.60;1.20;;;;;;;11.67;93.11;101480.53;6243217;28;20115;-84
2021/10/25 13:30:50;;;;;;;1.80;1.10;;;;;;;11.74;94.16;101481.09;6254781;28;20056;-84
2021/10/25 13:33:52;;;;;;;5.18;1.15;;;;;;;11.74;92.22;101478.44;6246998;28;20042;-81
2021/10/25 13:36:53;;;;;;;2.65;1.10;;;;;;;11.77;90.65;101472.19;6256652;28;20127;-84
2021/10/25 13:39:54;;;;;;;2.65;1.15;;;;;;;11.72;91.12;101472.41;6257995;28;20056;-83
2021/10/25 13:43:00;;;;;;;2.38;1.48;;;;;;;11.81;91.44;101474.63;6247867;28;20539;-84
2021/10/25 13:46:01;;;;;;;2.55;1.00;;;;;;;11.76;91.17;101467.84;6247654;28;20147;-80
2021/10/25 13:49:04;;;;;;;4.18;1.20;;;;;;;11.65;92.03;101471.81;6247649;28;20421;-80
2021/10/25 13:52:06;;;;;;;1.67;1.00;;;;;;;11.63;94.35;101478.97;6248289;28;20053;-84
2021/10/25 13:55:10;;;;;;;1.90;1.10;;;;;;;11.59;94.85;101477.38;6247502;28;20060;-84
2021/10/25 13:58:12;;;;;;;1.75;1.20;;;;;;;11.59;93.99;101476.53;6246510;28;20049;-84
2021/10/25 14:01:14;;;;;;;1.88;1.20;;;;;;;11.65;93.98;101473.63;6250864;28;20045;-84
2021/10/25 14:04:18;;;;;;;3.00;1.30;;;;;;;11.65;93.68;101468.34;6252812;28;20455;-82
2021/10/25 14:07:21;;;;;;;4.32;1.63;;;;;;;11.72;94.51;101464.50;6252787;28;20089;-85
2021/10/25 14:10:26;;;;;;;3.42;2.03;;;;;;;11.69;95.30;101464.66;6253084;28;20092;-83
2021/10/25 14:13:31;;;;;;;2.65;1.60;;;;;;;11.61;92.66;101466.78;6252878;28;20046;-84
2021/10/25 14:16:35;;;;;;;5.47;1.50;;;;;;;11.63;91.43;101467.56;6253472;28;20060;-85
2021/10/25 14:19:38;;;;;;;4.88;1.50;;;;;;;11.57;91.93;101454.69;6252906;28;20049;-85
2021/10/25 14:22:39;;;;;;;4.55;1.50;;;;;;;11.48;92.63;101461.22;6253194;28;20056;-83
2021/10/25 14:25:41;;;;;;;6.57;1.30;;;;;;;11.47;92.96;101466.56;6252649;28;20416;-85
2021/10/25 14:28:43;;;;;;;1.65;1.00;;;;;;;11.48;92.80;101458.56;6252795;28;20057;-82
2021/10/25 14:31:47;;;;;;;5.75;1.98;;;;;;;11.40;93.24;101458.94;6251787;28;20049;-85
2021/10/25 14:34:49;;;;;;;2.13;1.42;;;;;;;11.39;95.44;101459.84;6251958;28;20046;-82
2021/10/25 14:37:51;;;;;;;2.67;1.25;;;;;;;11.33;96.11;101460.13;6252274;28;20049;-82
2021/10/25 14:41:02;;;;;;;2.13;0.85;;;;;;;11.32;97.97;101450.53;6252778;28;20045;-83
2021/10/25 14:44:08;;;;;;;2.03;1.10;;;;;;;11.30;100.00;101455.00;6251921;28;20050;-81
2021/10/25 14:53:50;;;;;;;3.28;1.23;;;;;;;11.21;100.00;101447.53;6270373;28;20049;-85
2021/10/25 14:56:51;;;;;;;3.42;1.10;;;;;;;11.29;100.00;101431.41;6261892;28;20546;-87
2021/10/25 14:59:55;;;;;;;2.75;1.52;;;;;;;11.30;100.00;101438.38;6270642;28;20052;-89
2021/10/25 15:02:57;;;;;;;2.00;1.20;;;;;;;11.29;100.00;101439.28;6253883;28;20056;-87
2021/10/25 15:05:58;;;;;;;2.15;1.08;;;;;;;11.35;100.00;101441.63;6253774;28;20050;-89
2021/10/25 15:09:00;;;;;;;3.05;1.30;;;;;;;11.38;100.00;101436.25;6258151;28;20490;-91
2021/10/25 15:12:01;;;;;;;4.57;1.95;;;;;;;11.35;100.00;101436.38;6261793;28;20045;-89
2021/10/25 15:15:06;;;;;;;1.65;1.20;;;;;;;11.30;100.00;101438.38;6260351;28;20049;-86
2021/10/25 15:18:07;;;;;;;1.23;0.75;;;;;;;11.31;99.68;101433.06;6260507;28;20068;-90